Eko 4 — SVAR8 — position and weather

sailwx.info

Track history (hours):
 
Tides and Currents Weather Stations Pressure Air Temp Water Temp Dewpoint Dewpoint Depression Visibility Wind Speed Wind Dir Waves Ship Positions

Eko 4

Last reported at 2014-Dec-20 20:33 UTC. Time now 2014-Dec-20 20:51 UTC.
Position N 38°01' E 023°32'.

Length 88 m; draft 5 m.

Type: Ship (hazmat cat A). MMSI: 240912000.

Date/timePositionNaut miles runAvg speedWind from/ knotsBaromVisibWave heightAir tempDewpointWater temp
2014-Dec-20 20:33N 38°01' E 023°32'0 0.0
2014-Dec-20 19:33N 38°01' E 023°32'0 0.0
2014-Dec-20 18:33N 38°01' E 023°32'0 0.1
2014-Dec-20 17:33N 38°01' E 023°32'0 0.1
2014-Dec-20 16:33N 38°01' E 023°32'0 0.0
2014-Dec-20 15:32N 38°01' E 023°32'0 0.0
2014-Dec-20 14:33N 38°01' E 023°32'0 0.0
2014-Dec-20 13:33N 38°01' E 023°32'0 0.0
2014-Dec-20 12:32N 38°01' E 023°32'0 0.0
2014-Dec-20 11:32N 38°01' E 023°32'0 0.0
2014-Dec-20 10:32N 38°01' E 023°32'0 0.1
2014-Dec-20 09:32N 38°01' E 023°32'0 0.0
2014-Dec-20 08:32N 38°01' E 023°32'0 0.0
2014-Dec-20 07:32N 38°01' E 023°32'1 0.8
2014-Dec-20 06:33N 38°00' E 023°33'8 8.3
2014-Dec-20 05:34N 37°53' E 023°38'1010.1
2014-Dec-20 04:33N 37°44' E 023°43'4310.6
2014-Dec-20 00:33N 37°04' E 024°03'1110.7
2014-Dec-19 23:33N 36°54' E 024°07'1110.5
2014-Dec-19 22:33N 36°44' E 024°12'1010.4
2014-Dec-19 21:33N 36°35' E 024°16'1110.5
2014-Dec-19 20:33N 36°25' E 024°23'1010.1
2014-Dec-19 19:33N 36°17' E 024°29'1010.0
2014-Dec-19 18:33N 36°08' E 024°35'1010.0
2014-Dec-19 17:33N 35°60' E 024°42'1010.0
2014-Dec-19 16:33N 35°51' E 024°49'1010.1
2014-Dec-19 15:33N 35°42' E 024°54'22 9.5
2014-Dec-19 13:13N 35°21' E 025°03'  
2014-Dec-16 10:33N 36°43' E 026°42'1010.1
2014-Dec-16 09:33N 36°48' E 026°32'1110.2
2014-Dec-16 08:30N 36°54' E 026°20'9 9.8
2014-Dec-16 07:33N 36°59' E 026°11'1010.4
2014-Dec-16 06:33N 37°05' E 026°00'1010.5
2014-Dec-16 05:34N 37°11' E 025°49'1210.4
2014-Dec-16 04:24N 37°14' E 025°35'910.0
2014-Dec-16 03:32N 37°16' E 025°24'10 9.8
2014-Dec-16 02:33N 37°17' E 025°12'10 9.9
2014-Dec-16 01:32N 37°19' E 024°60'10 9.6
2014-Dec-16 00:31N 37°22' E 024°48'1010.2
2014-Dec-15 23:33N 37°27' E 024°37'1010.0
2014-Dec-15 22:34N 37°31' E 024°25'10 9.6
2014-Dec-15 21:33N 37°30' E 024°13'1010.0
2014-Dec-15 20:33N 37°34' E 024°01'1010.1
2014-Dec-15 19:34N 37°38' E 023°50'9 9.4
2014-Dec-15 18:33N 37°43' E 023°40'10 9.9
2014-Dec-15 17:34N 37°53' E 023°36'8 7.7
2014-Dec-15 16:33N 38°00' E 023°33'2 2.2
2014-Dec-15 15:31N 38°02' E 023°35'0 0.0
2014-Dec-14 20:04N 38°02' E 023°36'0 0.0
2014-Dec-14 19:28N 38°02' E 023°36'0 0.1
2014-Dec-14 17:33N 38°02' E 023°35'3 2.5
2014-Dec-14 16:33N 38°01' E 023°32'0 0.0
2014-Dec-14 15:33N 38°01' E 023°32'1 0.5
2014-Dec-14 14:32N 38°01' E 023°32'0 0.0
2014-Dec-14 13:32N 38°01' E 023°32'0 0.0
2014-Dec-14 12:32N 38°01' E 023°32'0 0.0
2014-Dec-14 11:32N 38°01' E 023°32'0 0.0
2014-Dec-14 10:32N 38°01' E 023°32'0 0.0
2014-Dec-14 09:29N 38°01' E 023°32'0 0.1
2014-Dec-14 08:32N 38°01' E 023°32'3 3.2
2014-Dec-14 07:33N 37°58' E 023°33'9 8.5
2014-Dec-14 06:33N 37°51' E 023°39'1010.1
2014-Dec-14 05:33N 37°42' E 023°44'11 9.6
2014-Dec-14 04:24N 37°37' E 023°57'910.2
2014-Dec-14 03:33N 37°37' E 024°07'1211.5
2014-Dec-14 02:33N 37°44' E 024°19'1211.3
2014-Dec-14 01:32N 37°51' E 024°30'3410.7
2014-Dec-13 22:19N 38°25' E 024°37'  
2014-Dec-10 22:30N 37°55' E 024°34'  
Track history (hours):
 
Tides and Currents Weather Stations Pressure Air Temp Water Temp Dewpoint Dewpoint Depression Visibility Wind Speed Wind Dir Waves Ship Positions

Eko 4

Last reported at 2014-Dec-20 20:33 UTC. Time now 2014-Dec-20 20:51 UTC.
Position N 38°01' E 023°32'.

Length 88 m; draft 5 m.

Type: Ship (hazmat cat A). MMSI: 240912000.

Date/timePositionNaut miles runAvg speedWind from/ knotsBaromVisibWave heightAir tempDewpointWater temp
2014-Dec-20 20:33N 38°01' E 023°32'0 0.0
2014-Dec-20 19:33N 38°01' E 023°32'0 0.0
2014-Dec-20 18:33N 38°01' E 023°32'0 0.1
2014-Dec-20 17:33N 38°01' E 023°32'0 0.1
2014-Dec-20 16:33N 38°01' E 023°32'0 0.0
2014-Dec-20 15:32N 38°01' E 023°32'0 0.0
2014-Dec-20 14:33N 38°01' E 023°32'0 0.0
2014-Dec-20 13:33N 38°01' E 023°32'0 0.0
2014-Dec-20 12:32N 38°01' E 023°32'0 0.0
2014-Dec-20 11:32N 38°01' E 023°32'0 0.0
2014-Dec-20 10:32N 38°01' E 023°32'0 0.1
2014-Dec-20 09:32N 38°01' E 023°32'0 0.0
2014-Dec-20 08:32N 38°01' E 023°32'0 0.0
2014-Dec-20 07:32N 38°01' E 023°32'1 0.8
2014-Dec-20 06:33N 38°00' E 023°33'8 8.3
2014-Dec-20 05:34N 37°53' E 023°38'1010.1
2014-Dec-20 04:33N 37°44' E 023°43'4310.6
2014-Dec-20 00:33N 37°04' E 024°03'1110.7
2014-Dec-19 23:33N 36°54' E 024°07'1110.5
2014-Dec-19 22:33N 36°44' E 024°12'1010.4
2014-Dec-19 21:33N 36°35' E 024°16'1110.5
2014-Dec-19 20:33N 36°25' E 024°23'1010.1
2014-Dec-19 19:33N 36°17' E 024°29'1010.0
2014-Dec-19 18:33N 36°08' E 024°35'1010.0
2014-Dec-19 17:33N 35°60' E 024°42'1010.0
2014-Dec-19 16:33N 35°51' E 024°49'1010.1
2014-Dec-19 15:33N 35°42' E 024°54'22 9.5
2014-Dec-19 13:13N 35°21' E 025°03'  
2014-Dec-16 10:33N 36°43' E 026°42'1010.1
2014-Dec-16 09:33N 36°48' E 026°32'1110.2
2014-Dec-16 08:30N 36°54' E 026°20'9 9.8
2014-Dec-16 07:33N 36°59' E 026°11'1010.4
2014-Dec-16 06:33N 37°05' E 026°00'1010.5
2014-Dec-16 05:34N 37°11' E 025°49'1210.4
2014-Dec-16 04:24N 37°14' E 025°35'910.0
2014-Dec-16 03:32N 37°16' E 025°24'10 9.8
2014-Dec-16 02:33N 37°17' E 025°12'10 9.9
2014-Dec-16 01:32N 37°19' E 024°60'10 9.6
2014-Dec-16 00:31N 37°22' E 024°48'1010.2
2014-Dec-15 23:33N 37°27' E 024°37'1010.0
2014-Dec-15 22:34N 37°31' E 024°25'10 9.6
2014-Dec-15 21:33N 37°30' E 024°13'1010.0
2014-Dec-15 20:33N 37°34' E 024°01'1010.1
2014-Dec-15 19:34N 37°38' E 023°50'9 9.4
2014-Dec-15 18:33N 37°43' E 023°40'10 9.9
2014-Dec-15 17:34N 37°53' E 023°36'8 7.7
2014-Dec-15 16:33N 38°00' E 023°33'2 2.2
2014-Dec-15 15:31N 38°02' E 023°35'0 0.0
2014-Dec-14 20:04N 38°02' E 023°36'0 0.0
2014-Dec-14 19:28N 38°02' E 023°36'0 0.1
2014-Dec-14 17:33N 38°02' E 023°35'3 2.5
2014-Dec-14 16:33N 38°01' E 023°32'0 0.0
2014-Dec-14 15:33N 38°01' E 023°32'1 0.5
2014-Dec-14 14:32N 38°01' E 023°32'0 0.0
2014-Dec-14 13:32N 38°01' E 023°32'0 0.0
2014-Dec-14 12:32N 38°01' E 023°32'0 0.0
2014-Dec-14 11:32N 38°01' E 023°32'0 0.0
2014-Dec-14 10:32N 38°01' E 023°32'0 0.0
2014-Dec-14 09:29N 38°01' E 023°32'0 0.1
2014-Dec-14 08:32N 38°01' E 023°32'3 3.2
2014-Dec-14 07:33N 37°58' E 023°33'9 8.5
2014-Dec-14 06:33N 37°51' E 023°39'1010.1
2014-Dec-14 05:33N 37°42' E 023°44'11 9.6
2014-Dec-14 04:24N 37°37' E 023°57'910.2
2014-Dec-14 03:33N 37°37' E 024°07'1211.5
2014-Dec-14 02:33N 37°44' E 024°19'1211.3
2014-Dec-14 01:32N 37°51' E 024°30'3410.7
2014-Dec-13 22:19N 38°25' E 024°37'  
2014-Dec-10 22:30N 37°55' E 024°34'  

Dump ship's entire track history